sensor_id;sensor_type;location;lat;lon;timestamp;P1;durP1;ratioP1;P2;durP2;ratioP2
15708;SDS011;7954;51.914;8.420;2023-07-09T00:01:47;5.37;;;4.87;;
15708;SDS011;7954;51.914;8.420;2023-07-09T00:04:16;5.40;;;4.97;;
15708;SDS011;7954;51.914;8.420;2023-07-09T00:06:45;4.93;;;4.53;;
15708;SDS011;7954;51.914;8.420;2023-07-09T00:09:13;4.57;;;4.27;;
15708;SDS011;7954;51.914;8.420;2023-07-09T00:11:42;5.20;;;4.80;;
15708;SDS011;7954;51.914;8.420;2023-07-09T00:14:13;5.50;;;4.83;;
15708;SDS011;7954;51.914;8.420;2023-07-09T00:16:43;5.60;;;5.10;;
15708;SDS011;7954;51.914;8.420;2023-07-09T00:19:13;5.10;;;4.60;;
15708;SDS011;7954;51.914;8.420;2023-07-09T00:21:44;5.00;;;4.60;;
15708;SDS011;7954;51.914;8.420;2023-07-09T00:24:13;4.80;;;4.40;;
15708;SDS011;7954;51.914;8.420;2023-07-09T00:26:41;5.53;;;4.70;;
15708;SDS011;7954;51.914;8.420;2023-07-09T00:29:10;5.13;;;4.70;;
15708;SDS011;7954;51.914;8.420;2023-07-09T00:31:40;5.00;;;4.60;;
15708;SDS011;7954;51.914;8.420;2023-07-09T00:34:08;4.67;;;4.27;;
15708;SDS011;7954;51.914;8.420;2023-07-09T00:36:38;4.70;;;4.30;;
15708;SDS011;7954;51.914;8.420;2023-07-09T00:39:09;5.10;;;4.60;;
15708;SDS011;7954;51.914;8.420;2023-07-09T00:41:45;5.17;;;4.33;;
15708;SDS011;7954;51.914;8.420;2023-07-09T00:44:24;6.40;;;4.73;;
15708;SDS011;7954;51.914;8.420;2023-07-09T00:49:52;4.47;;;4.17;;
15708;SDS011;7954;51.914;8.420;2023-07-09T00:52:28;5.10;;;4.60;;
15708;SDS011;7954;51.914;8.420;2023-07-09T00:55:03;5.03;;;4.57;;
15708;SDS011;7954;51.914;8.420;2023-07-09T00:57:35;5.13;;;4.63;;
15708;SDS011;7954;51.914;8.420;2023-07-09T01:00:09;5.17;;;4.77;;
15708;SDS011;7954;51.914;8.420;2023-07-09T01:02:44;5.13;;;4.73;;
15708;SDS011;7954;51.914;8.420;2023-07-09T01:05:15;4.77;;;4.37;;
15708;SDS011;7954;51.914;8.420;2023-07-09T01:07:46;4.90;;;4.50;;
15708;SDS011;7954;51.914;8.420;2023-07-09T01:10:15;5.17;;;4.67;;
15708;SDS011;7954;51.914;8.420;2023-07-09T01:12:44;4.97;;;4.47;;
15708;SDS011;7954;51.914;8.420;2023-07-09T01:15:14;5.37;;;4.80;;
15708;SDS011;7954;51.914;8.420;2023-07-09T01:17:44;4.63;;;4.20;;
15708;SDS011;7954;51.914;8.420;2023-07-09T01:20:16;5.40;;;5.00;;
15708;SDS011;7954;51.914;8.420;2023-07-09T01:22:50;4.97;;;4.47;;
15708;SDS011;7954;51.914;8.420;2023-07-09T01:25:23;5.10;;;4.70;;
15708;SDS011;7954;51.914;8.420;2023-07-09T01:27:52;5.10;;;4.67;;
15708;SDS011;7954;51.914;8.420;2023-07-09T01:30:21;5.70;;;5.20;;
15708;SDS011;7954;51.914;8.420;2023-07-09T01:32:50;5.37;;;4.90;;
15708;SDS011;7954;51.914;8.420;2023-07-09T01:35:20;5.73;;;5.23;;
15708;SDS011;7954;51.914;8.420;2023-07-09T01:37:50;4.93;;;4.53;;
15708;SDS011;7954;51.914;8.420;2023-07-09T01:40:19;4.87;;;4.47;;
15708;SDS011;7954;51.914;8.420;2023-07-09T01:42:58;5.23;;;4.83;;
15708;SDS011;7954;51.914;8.420;2023-07-09T01:45:29;4.70;;;4.40;;
15708;SDS011;7954;51.914;8.420;2023-07-09T01:47:59;4.80;;;4.40;;
15708;SDS011;7954;51.914;8.420;2023-07-09T01:50:29;5.50;;;5.00;;
15708;SDS011;7954;51.914;8.420;2023-07-09T01:52:59;5.23;;;4.73;;
15708;SDS011;7954;51.914;8.420;2023-07-09T01:55:28;4.90;;;4.50;;
15708;SDS011;7954;51.914;8.420;2023-07-09T01:57:56;5.50;;;4.80;;
15708;SDS011;7954;51.914;8.420;2023-07-09T02:00:25;4.87;;;4.47;;
15708;SDS011;7954;51.914;8.420;2023-07-09T02:02:54;5.40;;;5.00;;
15708;SDS011;7954;51.914;8.420;2023-07-09T02:05:24;4.93;;;4.57;;
15708;SDS011;7954;51.914;8.420;2023-07-09T02:07:52;5.23;;;4.83;;
15708;SDS011;7954;51.914;8.420;2023-07-09T02:10:22;5.40;;;4.90;;
15708;SDS011;7954;51.914;8.420;2023-07-09T02:12:51;6.33;;;4.93;;
15708;SDS011;7954;51.914;8.420;2023-07-09T02:22:19;5.20;;;4.70;;
15708;SDS011;7954;51.914;8.420;2023-07-09T02:24:48;6.60;;;4.93;;
15708;SDS011;7954;51.914;8.420;2023-07-09T02:27:17;6.20;;;5.60;;
15708;SDS011;7954;51.914;8.420;2023-07-09T02:29:45;5.60;;;5.10;;
15708;SDS011;7954;51.914;8.420;2023-07-09T02:32:15;5.20;;;4.80;;
15708;SDS011;7954;51.914;8.420;2023-07-09T02:34:45;5.50;;;5.00;;
15708;SDS011;7954;51.914;8.420;2023-07-09T02:37:16;5.73;;;5.23;;
15708;SDS011;7954;51.914;8.420;2023-07-09T02:39:45;6.27;;;5.10;;
15708;SDS011;7954;51.914;8.420;2023-07-09T02:42:15;5.30;;;4.83;;
15708;SDS011;7954;51.914;8.420;2023-07-09T02:44:46;5.40;;;5.00;;
15708;SDS011;7954;51.914;8.420;2023-07-09T02:47:14;5.63;;;5.13;;
15708;SDS011;7954;51.914;8.420;2023-07-09T02:49:42;5.27;;;4.80;;
15708;SDS011;7954;51.914;8.420;2023-07-09T02:52:10;5.87;;;4.90;;
15708;SDS011;7954;51.914;8.420;2023-07-09T02:54:38;5.03;;;4.40;;
15708;SDS011;7954;51.914;8.420;2023-07-09T02:57:06;5.10;;;4.60;;
15708;SDS011;7954;51.914;8.420;2023-07-09T02:59:36;5.60;;;5.10;;
15708;SDS011;7954;51.914;8.420;2023-07-09T03:02:04;5.43;;;4.77;;
15708;SDS011;7954;51.914;8.420;2023-07-09T03:04:32;5.47;;;4.97;;
15708;SDS011;7954;51.914;8.420;2023-07-09T03:07:00;5.20;;;4.70;;
15708;SDS011;7954;51.914;8.420;2023-07-09T03:09:28;5.90;;;5.40;;
15708;SDS011;7954;51.914;8.420;2023-07-09T03:11:56;5.43;;;4.93;;
15708;SDS011;7954;51.914;8.420;2023-07-09T03:14:24;5.20;;;4.80;;
15708;SDS011;7954;51.914;8.420;2023-07-09T03:16:54;5.33;;;4.83;;
15708;SDS011;7954;51.914;8.420;2023-07-09T03:19:22;5.30;;;4.90;;
15708;SDS011;7954;51.914;8.420;2023-07-09T03:21:51;5.63;;;5.13;;
15708;SDS011;7954;51.914;8.420;2023-07-09T03:24:19;5.57;;;5.17;;
15708;SDS011;7954;51.914;8.420;2023-07-09T03:26:47;5.20;;;4.80;;
15708;SDS011;7954;51.914;8.420;2023-07-09T03:29:15;6.47;;;5.80;;
15708;SDS011;7954;51.914;8.420;2023-07-09T03:31:43;6.00;;;5.40;;
15708;SDS011;7954;51.914;8.420;2023-07-09T03:34:13;7.93;;;5.30;;
15708;SDS011;7954;51.914;8.420;2023-07-09T03:36:41;6.17;;;5.40;;
15708;SDS011;7954;51.914;8.420;2023-07-09T03:39:09;5.73;;;5.23;;
15708;SDS011;7954;51.914;8.420;2023-07-09T03:41:37;5.60;;;5.10;;
15708;SDS011;7954;51.914;8.420;2023-07-09T03:44:05;5.80;;;5.30;;
15708;SDS011;7954;51.914;8.420;2023-07-09T03:46:32;5.80;;;5.23;;
15708;SDS011;7954;51.914;8.420;2023-07-09T03:49:00;5.90;;;5.40;;
15708;SDS011;7954;51.914;8.420;2023-07-09T03:51:30;7.17;;;5.10;;
15708;SDS011;7954;51.914;8.420;2023-07-09T03:53:58;7.43;;;5.50;;
15708;SDS011;7954;51.914;8.420;2023-07-09T03:56:25;7.30;;;5.87;;
15708;SDS011;7954;51.914;8.420;2023-07-09T03:58:53;6.10;;;5.60;;
15708;SDS011;7954;51.914;8.420;2023-07-09T04:01:21;6.53;;;5.93;;
15708;SDS011;7954;51.914;8.420;2023-07-09T04:03:49;6.40;;;5.50;;
15708;SDS011;7954;51.914;8.420;2023-07-09T04:06:17;5.80;;;5.20;;
15708;SDS011;7954;51.914;8.420;2023-07-09T04:08:46;6.13;;;5.53;;
15708;SDS011;7954;51.914;8.420;2023-07-09T04:11:14;7.60;;;5.50;;
15708;SDS011;7954;51.914;8.420;2023-07-09T04:13:41;6.73;;;5.80;;
15708;SDS011;7954;51.914;8.420;2023-07-09T04:16:09;5.90;;;5.20;;
15708;SDS011;7954;51.914;8.420;2023-07-09T04:18:38;5.57;;;5.07;;
15708;SDS011;7954;51.914;8.420;2023-07-09T04:21:06;5.93;;;5.40;;
15708;SDS011;7954;51.914;8.420;2023-07-09T04:23:34;5.60;;;5.10;;
15708;SDS011;7954;51.914;8.420;2023-07-09T04:26:03;5.83;;;5.33;;
15708;SDS011;7954;51.914;8.420;2023-07-09T04:28:35;6.37;;;5.60;;
15708;SDS011;7954;51.914;8.420;2023-07-09T04:31:03;6.00;;;4.83;;
15708;SDS011;7954;51.914;8.420;2023-07-09T04:33:31;5.27;;;4.77;;
15708;SDS011;7954;51.914;8.420;2023-07-09T04:36:02;5.43;;;5.00;;
15708;SDS011;7954;51.914;8.420;2023-07-09T04:38:33;5.63;;;5.13;;
15708;SDS011;7954;51.914;8.420;2023-07-09T04:41:03;5.63;;;5.13;;
15708;SDS011;7954;51.914;8.420;2023-07-09T04:43:31;5.73;;;5.13;;
15708;SDS011;7954;51.914;8.420;2023-07-09T04:45:59;5.80;;;5.23;;
15708;SDS011;7954;51.914;8.420;2023-07-09T04:48:28;5.87;;;4.80;;
15708;SDS011;7954;51.914;8.420;2023-07-09T04:50:55;7.00;;;5.10;;
15708;SDS011;7954;51.914;8.420;2023-07-09T04:53:26;5.93;;;5.33;;
15708;SDS011;7954;51.914;8.420;2023-07-09T04:55:54;5.83;;;5.23;;
15708;SDS011;7954;51.914;8.420;2023-07-09T04:58:24;5.63;;;5.10;;
15708;SDS011;7954;51.914;8.420;2023-07-09T05:00:52;5.63;;;5.13;;
15708;SDS011;7954;51.914;8.420;2023-07-09T05:03:20;6.47;;;5.40;;
15708;SDS011;7954;51.914;8.420;2023-07-09T05:05:48;5.33;;;4.80;;
15708;SDS011;7954;51.914;8.420;2023-07-09T05:08:16;5.50;;;5.00;;
15708;SDS011;7954;51.914;8.420;2023-07-09T05:10:44;6.73;;;5.37;;
15708;SDS011;7954;51.914;8.420;2023-07-09T05:13:14;5.53;;;5.10;;
15708;SDS011;7954;51.914;8.420;2023-07-09T05:15:44;5.47;;;5.00;;
15708;SDS011;7954;51.914;8.420;2023-07-09T05:18:14;5.73;;;5.23;;
15708;SDS011;7954;51.914;8.420;2023-07-09T05:20:42;6.00;;;5.33;;
15708;SDS011;7954;51.914;8.420;2023-07-09T05:23:11;5.80;;;5.30;;
15708;SDS011;7954;51.914;8.420;2023-07-09T05:25:39;5.90;;;5.30;;
15708;SDS011;7954;51.914;8.420;2023-07-09T05:28:07;6.87;;;5.27;;
15708;SDS011;7954;51.914;8.420;2023-07-09T05:30:35;5.50;;;5.10;;
15708;SDS011;7954;51.914;8.420;2023-07-09T05:33:04;6.70;;;5.27;;
15708;SDS011;7954;51.914;8.420;2023-07-09T05:35:32;5.83;;;5.33;;
15708;SDS011;7954;51.914;8.420;2023-07-09T05:38:00;7.20;;;5.87;;
15708;SDS011;7954;51.914;8.420;2023-07-09T05:40:28;6.20;;;5.60;;
15708;SDS011;7954;51.914;8.420;2023-07-09T05:42:56;6.77;;;5.43;;
15708;SDS011;7954;51.914;8.420;2023-07-09T05:45:24;7.20;;;4.97;;
15708;SDS011;7954;51.914;8.420;2023-07-09T05:47:52;6.00;;;5.50;;
15708;SDS011;7954;51.914;8.420;2023-07-09T05:50:21;5.57;;;5.13;;
15708;SDS011;7954;51.914;8.420;2023-07-09T05:52:49;5.83;;;5.33;;
15708;SDS011;7954;51.914;8.420;2023-07-09T05:55:17;5.50;;;5.00;;
15708;SDS011;7954;51.914;8.420;2023-07-09T05:57:45;6.00;;;5.47;;
15708;SDS011;7954;51.914;8.420;2023-07-09T06:00:14;6.00;;;5.50;;
15708;SDS011;7954;51.914;8.420;2023-07-09T06:02:43;5.83;;;5.23;;
15708;SDS011;7954;51.914;8.420;2023-07-09T06:05:11;5.53;;;5.03;;
15708;SDS011;7954;51.914;8.420;2023-07-09T06:07:40;5.40;;;5.00;;
15708;SDS011;7954;51.914;8.420;2023-07-09T06:10:09;5.33;;;4.87;;
15708;SDS011;7954;51.914;8.420;2023-07-09T06:12:37;4.97;;;4.57;;
15708;SDS011;7954;51.914;8.420;2023-07-09T06:15:05;5.60;;;4.93;;
15708;SDS011;7954;51.914;8.420;2023-07-09T06:17:34;5.60;;;5.10;;
15708;SDS011;7954;51.914;8.420;2023-07-09T06:20:04;5.63;;;5.13;;
15708;SDS011;7954;51.914;8.420;2023-07-09T06:22:33;5.17;;;4.77;;
15708;SDS011;7954;51.914;8.420;2023-07-09T06:25:03;5.37;;;4.97;;
15708;SDS011;7954;51.914;8.420;2023-07-09T06:27:31;6.83;;;5.00;;
15708;SDS011;7954;51.914;8.420;2023-07-09T06:29:59;5.97;;;5.37;;
15708;SDS011;7954;51.914;8.420;2023-07-09T06:32:27;5.00;;;4.60;;
15708;SDS011;7954;51.914;8.420;2023-07-09T06:34:55;5.20;;;4.80;;
15708;SDS011;7954;51.914;8.420;2023-07-09T06:37:23;5.30;;;4.57;;
15708;SDS011;7954;51.914;8.420;2023-07-09T06:39:51;5.47;;;4.93;;
15708;SDS011;7954;51.914;8.420;2023-07-09T06:42:21;5.20;;;4.70;;
15708;SDS011;7954;51.914;8.420;2023-07-09T06:44:48;5.47;;;4.93;;
15708;SDS011;7954;51.914;8.420;2023-07-09T06:47:17;5.90;;;5.20;;
15708;SDS011;7954;51.914;8.420;2023-07-09T06:49:46;5.27;;;4.87;;
15708;SDS011;7954;51.914;8.420;2023-07-09T06:52:14;6.40;;;4.80;;
15708;SDS011;7954;51.914;8.420;2023-07-09T06:54:42;5.40;;;5.00;;
15708;SDS011;7954;51.914;8.420;2023-07-09T06:57:10;5.40;;;4.93;;
15708;SDS011;7954;51.914;8.420;2023-07-09T06:59:39;4.77;;;4.37;;
15708;SDS011;7954;51.914;8.420;2023-07-09T07:02:07;5.63;;;5.07;;
15708;SDS011;7954;51.914;8.420;2023-07-09T07:04:36;6.13;;;4.77;;
15708;SDS011;7954;51.914;8.420;2023-07-09T07:07:03;5.37;;;4.53;;
15708;SDS011;7954;51.914;8.420;2023-07-09T07:09:31;7.23;;;4.93;;
15708;SDS011;7954;51.914;8.420;2023-07-09T07:12:00;6.00;;;4.70;;
15708;SDS011;7954;51.914;8.420;2023-07-09T07:14:28;5.60;;;4.77;;
15708;SDS011;7954;51.914;8.420;2023-07-09T07:16:59;7.00;;;5.07;;
15708;SDS011;7954;51.914;8.420;2023-07-09T07:19:27;5.80;;;5.23;;
15708;SDS011;7954;51.914;8.420;2023-07-09T07:21:55;5.37;;;4.97;;
15708;SDS011;7954;51.914;8.420;2023-07-09T07:24:23;5.20;;;4.80;;
15708;SDS011;7954;51.914;8.420;2023-07-09T07:26:50;4.80;;;4.40;;
15708;SDS011;7954;51.914;8.420;2023-07-09T07:29:18;4.97;;;4.57;;
15708;SDS011;7954;51.914;8.420;2023-07-09T07:31:46;4.87;;;4.43;;
15708;SDS011;7954;51.914;8.420;2023-07-09T07:34:16;4.70;;;4.30;;
15708;SDS011;7954;51.914;8.420;2023-07-09T07:36:45;4.87;;;4.47;;
15708;SDS011;7954;51.914;8.420;2023-07-09T07:39:14;4.80;;;4.30;;
15708;SDS011;7954;51.914;8.420;2023-07-09T07:41:43;5.00;;;4.50;;
15708;SDS011;7954;51.914;8.420;2023-07-09T07:44:11;5.43;;;4.30;;
15708;SDS011;7954;51.914;8.420;2023-07-09T07:46:39;6.57;;;4.70;;
15708;SDS011;7954;51.914;8.420;2023-07-09T07:49:07;5.67;;;4.60;;
15708;SDS011;7954;51.914;8.420;2023-07-09T07:51:36;4.63;;;4.23;;
15708;SDS011;7954;51.914;8.420;2023-07-09T07:54:05;6.13;;;4.80;;
15708;SDS011;7954;51.914;8.420;2023-07-09T07:56:35;5.07;;;4.60;;
15708;SDS011;7954;51.914;8.420;2023-07-09T07:59:06;5.13;;;4.40;;
15708;SDS011;7954;51.914;8.420;2023-07-09T08:01:34;4.97;;;4.40;;
15708;SDS011;7954;51.914;8.420;2023-07-09T08:04:02;6.40;;;4.53;;
15708;SDS011;7954;51.914;8.420;2023-07-09T08:06:30;5.72;;;4.35;;
15708;SDS011;7954;51.914;8.420;2023-07-09T08:08:59;4.15;;;3.83;;
15708;SDS011;7954;51.914;8.420;2023-07-09T08:11:27;4.78;;;4.28;;
15708;SDS011;7954;51.914;8.420;2023-07-09T08:13:57;6.75;;;4.45;;
15708;SDS011;7954;51.914;8.420;2023-07-09T08:16:26;4.80;;;4.35;;
15708;SDS011;7954;51.914;8.420;2023-07-09T08:18:54;4.78;;;4.38;;
15708;SDS011;7954;51.914;8.420;2023-07-09T08:21:22;4.75;;;4.35;;
15708;SDS011;7954;51.914;8.420;2023-07-09T08:23:50;5.03;;;4.55;;
15708;SDS011;7954;51.914;8.420;2023-07-09T08:26:19;6.40;;;4.10;;
15708;SDS011;7954;51.914;8.420;2023-07-09T08:28:47;4.57;;;4.18;;
15708;SDS011;7954;51.914;8.420;2023-07-09T08:31:15;4.68;;;4.28;;
15708;SDS011;7954;51.914;8.420;2023-07-09T08:33:43;5.65;;;5.00;;
15708;SDS011;7954;51.914;8.420;2023-07-09T08:36:11;5.05;;;4.28;;
15708;SDS011;7954;51.914;8.420;2023-07-09T08:38:39;4.80;;;4.35;;
15708;SDS011;7954;51.914;8.420;2023-07-09T08:41:08;5.32;;;4.30;;
15708;SDS011;7954;51.914;8.420;2023-07-09T08:43:48;7.82;;;5.00;;
15708;SDS011;7954;51.914;8.420;2023-07-09T08:46:24;4.85;;;4.45;;
15708;SDS011;7954;51.914;8.420;2023-07-09T08:48:57;4.47;;;4.07;;
15708;SDS011;7954;51.914;8.420;2023-07-09T08:51:28;5.28;;;4.32;;
15708;SDS011;7954;51.914;8.420;2023-07-09T08:54:02;9.23;;;4.80;;
15708;SDS011;7954;51.914;8.420;2023-07-09T08:56:31;4.93;;;4.53;;
15708;SDS011;7954;51.914;8.420;2023-07-09T08:59:02;5.38;;;4.35;;
15708;SDS011;7954;51.914;8.420;2023-07-09T09:01:31;5.07;;;4.57;;
15708;SDS011;7954;51.914;8.420;2023-07-09T09:04:10;4.80;;;4.40;;
15708;SDS011;7954;51.914;8.420;2023-07-09T09:06:46;5.85;;;4.60;;
15708;SDS011;7954;51.914;8.420;2023-07-09T09:09:21;5.40;;;4.50;;
15708;SDS011;7954;51.914;8.420;2023-07-09T09:11:58;5.15;;;4.55;;
15708;SDS011;7954;51.914;8.420;2023-07-09T09:14:34;6.43;;;4.50;;
15708;SDS011;7954;51.914;8.420;2023-07-09T09:17:07;5.28;;;4.18;;
15708;SDS011;7954;51.914;8.420;2023-07-09T09:19:42;5.25;;;4.63;;
15708;SDS011;7954;51.914;8.420;2023-07-09T09:22:15;5.30;;;4.80;;
15708;SDS011;7954;51.914;8.420;2023-07-09T09:24:51;5.53;;;4.50;;
15708;SDS011;7954;51.914;8.420;2023-07-09T09:27:27;4.53;;;4.13;;
15708;SDS011;7954;51.914;8.420;2023-07-09T09:29:56;6.65;;;4.50;;
15708;SDS011;7954;51.914;8.420;2023-07-09T09:32:25;5.22;;;4.22;;
15708;SDS011;7954;51.914;8.420;2023-07-09T09:34:56;4.88;;;4.18;;
15708;SDS011;7954;51.914;8.420;2023-07-09T09:37:26;5.53;;;4.47;;
15708;SDS011;7954;51.914;8.420;2023-07-09T09:39:55;5.78;;;4.70;;
15708;SDS011;7954;51.914;8.420;2023-07-09T09:42:42;4.82;;;4.28;;
15708;SDS011;7954;51.914;8.420;2023-07-09T09:45:12;4.60;;;4.20;;
15708;SDS011;7954;51.914;8.420;2023-07-09T09:47:43;4.78;;;4.38;;
15708;SDS011;7954;51.914;8.420;2023-07-09T09:50:13;6.00;;;5.32;;
15708;SDS011;7954;51.914;8.420;2023-07-09T09:52:42;6.20;;;5.57;;
15708;SDS011;7954;51.914;8.420;2023-07-09T09:55:11;8.98;;;4.97;;
15708;SDS011;7954;51.914;8.420;2023-07-09T09:57:47;5.72;;;4.43;;
15708;SDS011;7954;51.914;8.420;2023-07-09T10:00:18;5.47;;;4.80;;
15708;SDS011;7954;51.914;8.420;2023-07-09T10:02:49;5.32;;;4.82;;
15708;SDS011;7954;51.914;8.420;2023-07-09T10:05:20;4.78;;;4.32;;
15708;SDS011;7954;51.914;8.420;2023-07-09T10:07:55;6.18;;;4.80;;
15708;SDS011;7954;51.914;8.420;2023-07-09T10:10:28;5.20;;;4.70;;
15708;SDS011;7954;51.914;8.420;2023-07-09T10:13:02;5.68;;;4.78;;
15708;SDS011;7954;51.914;8.420;2023-07-09T10:15:39;4.70;;;4.25;;
15708;SDS011;7954;51.914;8.420;2023-07-09T10:18:13;6.65;;;4.78;;
15708;SDS011;7954;51.914;8.420;2023-07-09T10:20:49;6.50;;;4.60;;
15708;SDS011;7954;51.914;8.420;2023-07-09T10:23:25;5.13;;;4.50;;
15708;SDS011;7954;51.914;8.420;2023-07-09T10:25:58;5.43;;;4.90;;
15708;SDS011;7954;51.914;8.420;2023-07-09T10:28:46;6.90;;;5.00;;
15708;SDS011;7954;51.914;8.420;2023-07-09T10:31:27;6.03;;;4.80;;
15708;SDS011;7954;51.914;8.420;2023-07-09T10:34:06;5.50;;;5.00;;
15708;SDS011;7954;51.914;8.420;2023-07-09T10:36:57;4.53;;;4.13;;
15708;SDS011;7954;51.914;8.420;2023-07-09T10:39:40;5.85;;;4.78;;
15708;SDS011;7954;51.914;8.420;2023-07-09T10:42:13;5.63;;;5.10;;
15708;SDS011;7954;51.914;8.420;2023-07-09T10:44:51;5.18;;;4.68;;
15708;SDS011;7954;51.914;8.420;2023-07-09T10:47:27;5.35;;;4.85;;
15708;SDS011;7954;51.914;8.420;2023-07-09T10:49:58;6.50;;;5.10;;
15708;SDS011;7954;51.914;8.420;2023-07-09T10:52:31;6.40;;;5.07;;
15708;SDS011;7954;51.914;8.420;2023-07-09T10:55:03;5.25;;;4.47;;
15708;SDS011;7954;51.914;8.420;2023-07-09T10:57:35;5.75;;;4.50;;
15708;SDS011;7954;51.914;8.420;2023-07-09T11:00:12;4.57;;;4.18;;
15708;SDS011;7954;51.914;8.420;2023-07-09T11:02:45;4.97;;;4.38;;
15708;SDS011;7954;51.914;8.420;2023-07-09T11:05:18;6.13;;;4.82;;
15708;SDS011;7954;51.914;8.420;2023-07-09T11:07:48;6.50;;;4.90;;
15708;SDS011;7954;51.914;8.420;2023-07-09T11:10:25;4.97;;;4.50;;
15708;SDS011;7954;51.914;8.420;2023-07-09T11:12:57;4.90;;;4.40;;
15708;SDS011;7954;51.914;8.420;2023-07-09T11:15:31;4.95;;;4.45;;
15708;SDS011;7954;51.914;8.420;2023-07-09T11:18:05;5.05;;;4.50;;
15708;SDS011;7954;51.914;8.420;2023-07-09T11:20:36;5.38;;;4.68;;
15708;SDS011;7954;51.914;8.420;2023-07-09T11:23:16;6.15;;;4.80;;
15708;SDS011;7954;51.914;8.420;2023-07-09T11:25:46;5.15;;;4.35;;
15708;SDS011;7954;51.914;8.420;2023-07-09T11:28:15;6.32;;;4.65;;
15708;SDS011;7954;51.914;8.420;2023-07-09T11:30:50;4.43;;;4.03;;
15708;SDS011;7954;51.914;8.420;2023-07-09T11:33:26;5.32;;;4.20;;
15708;SDS011;7954;51.914;8.420;2023-07-09T11:36:06;6.45;;;4.28;;
15708;SDS011;7954;51.914;8.420;2023-07-09T11:38:39;4.72;;;4.32;;
15708;SDS011;7954;51.914;8.420;2023-07-09T11:41:24;5.15;;;4.20;;
15708;SDS011;7954;51.914;8.420;2023-07-09T11:44:02;4.88;;;4.30;;
15708;SDS011;7954;51.914;8.420;2023-07-09T11:46:32;5.20;;;4.68;;
15708;SDS011;7954;51.914;8.420;2023-07-09T11:49:06;6.60;;;4.20;;
15708;SDS011;7954;51.914;8.420;2023-07-09T11:51:38;7.30;;;4.25;;
15708;SDS011;7954;51.914;8.420;2023-07-09T11:54:11;5.18;;;4.10;;
15708;SDS011;7954;51.914;8.420;2023-07-09T11:56:40;5.00;;;4.50;;
15708;SDS011;7954;51.914;8.420;2023-07-09T11:59:08;4.75;;;4.35;;
15708;SDS011;7954;51.914;8.420;2023-07-09T12:01:42;5.60;;;4.13;;
15708;SDS011;7954;51.914;8.420;2023-07-09T12:04:17;4.95;;;4.50;;
15708;SDS011;7954;51.914;8.420;2023-07-09T12:06:46;4.45;;;4.05;;
15708;SDS011;7954;51.914;8.420;2023-07-09T12:09:15;4.80;;;4.32;;
15708;SDS011;7954;51.914;8.420;2023-07-09T12:11:46;6.53;;;4.30;;
15708;SDS011;7954;51.914;8.420;2023-07-09T12:14:16;6.13;;;4.50;;
15708;SDS011;7954;51.914;8.420;2023-07-09T12:16:46;5.68;;;4.05;;
15708;SDS011;7954;51.914;8.420;2023-07-09T12:19:18;4.10;;;3.70;;
15708;SDS011;7954;51.914;8.420;2023-07-09T12:21:48;5.55;;;4.00;;
15708;SDS011;7954;51.914;8.420;2023-07-09T12:24:20;4.00;;;3.60;;
15708;SDS011;7954;51.914;8.420;2023-07-09T12:26:51;5.03;;;4.13;;
15708;SDS011;7954;51.914;8.420;2023-07-09T12:29:19;5.30;;;3.92;;
15708;SDS011;7954;51.914;8.420;2023-07-09T12:31:47;4.00;;;3.70;;
15708;SDS011;7954;51.914;8.420;2023-07-09T12:34:17;6.53;;;4.57;;
15708;SDS011;7954;51.914;8.420;2023-07-09T12:36:46;4.35;;;3.80;;
15708;SDS011;7954;51.914;8.420;2023-07-09T12:39:18;4.25;;;3.85;;
15708;SDS011;7954;51.914;8.420;2023-07-09T12:41:53;5.28;;;4.30;;
15708;SDS011;7954;51.914;8.420;2023-07-09T12:44:23;4.18;;;3.78;;
15708;SDS011;7954;51.914;8.420;2023-07-09T12:46:52;4.60;;;3.83;;
15708;SDS011;7954;51.914;8.420;2023-07-09T12:49:23;6.38;;;4.28;;
15708;SDS011;7954;51.914;8.420;2023-07-09T12:51:53;4.22;;;3.83;;
15708;SDS011;7954;51.914;8.420;2023-07-09T12:54:22;6.22;;;4.28;;
15708;SDS011;7954;51.914;8.420;2023-07-09T12:56:51;5.18;;;4.55;;
15708;SDS011;7954;51.914;8.420;2023-07-09T12:59:20;4.10;;;3.70;;
15708;SDS011;7954;51.914;8.420;2023-07-09T13:01:50;4.97;;;4.20;;
15708;SDS011;7954;51.914;8.420;2023-07-09T13:04:26;6.15;;;4.75;;
15708;SDS011;7954;51.914;8.420;2023-07-09T13:06:56;4.97;;;4.57;;
15708;SDS011;7954;51.914;8.420;2023-07-09T13:09:26;4.90;;;4.40;;
15708;SDS011;7954;51.914;8.420;2023-07-09T13:11:55;6.65;;;5.05;;
15708;SDS011;7954;51.914;8.420;2023-07-09T13:14:24;5.45;;;4.85;;
15708;SDS011;7954;51.914;8.420;2023-07-09T13:17:01;5.40;;;4.90;;
15708;SDS011;7954;51.914;8.420;2023-07-09T13:19:32;5.10;;;4.60;;
15708;SDS011;7954;51.914;8.420;2023-07-09T13:22:00;5.38;;;4.60;;
15708;SDS011;7954;51.914;8.420;2023-07-09T13:24:29;6.60;;;4.82;;
15708;SDS011;7954;51.914;8.420;2023-07-09T13:26:59;5.63;;;5.07;;
15708;SDS011;7954;51.914;8.420;2023-07-09T13:29:28;5.65;;;5.15;;
15708;SDS011;7954;51.914;8.420;2023-07-09T13:31:58;5.43;;;4.93;;
15708;SDS011;7954;51.914;8.420;2023-07-09T13:34:27;6.47;;;5.75;;
15708;SDS011;7954;51.914;8.420;2023-07-09T13:37:01;5.55;;;5.15;;
15708;SDS011;7954;51.914;8.420;2023-07-09T13:39:29;5.97;;;5.47;;
15708;SDS011;7954;51.914;8.420;2023-07-09T13:41:57;7.78;;;5.85;;
15708;SDS011;7954;51.914;8.420;2023-07-09T13:44:28;6.78;;;6.13;;
15708;SDS011;7954;51.914;8.420;2023-07-09T13:46:57;6.07;;;5.57;;
15708;SDS011;7954;51.914;8.420;2023-07-09T13:49:26;6.22;;;5.72;;
15708;SDS011;7954;51.914;8.420;2023-07-09T13:51:56;6.43;;;5.82;;
15708;SDS011;7954;51.914;8.420;2023-07-09T13:54:28;8.63;;;6.22;;
15708;SDS011;7954;51.914;8.420;2023-07-09T13:57:02;5.95;;;5.55;;
15708;SDS011;7954;51.914;8.420;2023-07-09T13:59:31;6.30;;;5.80;;
15708;SDS011;7954;51.914;8.420;2023-07-09T14:01:59;6.55;;;6.15;;
15708;SDS011;7954;51.914;8.420;2023-07-09T14:04:31;6.78;;;6.28;;
15708;SDS011;7954;51.914;8.420;2023-07-09T14:06:59;10.77;;;6.15;;
15708;SDS011;7954;51.914;8.420;2023-07-09T14:09:29;7.13;;;6.55;;
15708;SDS011;7954;51.914;8.420;2023-07-09T14:11:58;5.68;;;5.18;;
15708;SDS011;7954;51.914;8.420;2023-07-09T14:14:28;6.50;;;5.97;;
15708;SDS011;7954;51.914;8.420;2023-07-09T14:17:00;6.53;;;6.03;;
15708;SDS011;7954;51.914;8.420;2023-07-09T14:19:28;6.30;;;5.70;;
15708;SDS011;7954;51.914;8.420;2023-07-09T14:21:56;7.40;;;6.72;;
15708;SDS011;7954;51.914;8.420;2023-07-09T14:24:25;6.22;;;5.78;;
15708;SDS011;7954;51.914;8.420;2023-07-09T14:26:56;6.53;;;6.03;;
15708;SDS011;7954;51.914;8.420;2023-07-09T14:29:25;12.98;;;5.90;;
15708;SDS011;7954;51.914;8.420;2023-07-09T14:31:53;6.50;;;5.93;;
15708;SDS011;7954;51.914;8.420;2023-07-09T14:34:21;6.53;;;5.63;;
15708;SDS011;7954;51.914;8.420;2023-07-09T14:36:52;6.38;;;5.78;;
15708;SDS011;7954;51.914;8.420;2023-07-09T14:39:22;5.82;;;5.43;;
15708;SDS011;7954;51.914;8.420;2023-07-09T14:41:50;5.88;;;5.35;;
15708;SDS011;7954;51.914;8.420;2023-07-09T14:44:22;5.90;;;5.40;;
15708;SDS011;7954;51.914;8.420;2023-07-09T14:46:53;6.45;;;4.80;;
15708;SDS011;7954;51.914;8.420;2023-07-09T14:49:24;5.70;;;5.20;;
15708;SDS011;7954;51.914;8.420;2023-07-09T14:51:53;5.40;;;5.00;;
15708;SDS011;7954;51.914;8.420;2023-07-09T14:54:23;6.55;;;4.70;;
15708;SDS011;7954;51.914;8.420;2023-07-09T14:56:52;8.00;;;4.70;;
15708;SDS011;7954;51.914;8.420;2023-07-09T14:59:23;6.13;;;4.53;;
15708;SDS011;7954;51.914;8.420;2023-07-09T15:01:51;5.10;;;4.70;;
15708;SDS011;7954;51.914;8.420;2023-07-09T15:04:28;4.97;;;4.22;;
15708;SDS011;7954;51.914;8.420;2023-07-09T15:06:59;5.18;;;4.38;;
15708;SDS011;7954;51.914;8.420;2023-07-09T15:09:28;4.30;;;4.00;;
15708;SDS011;7954;51.914;8.420;2023-07-09T15:11:56;5.85;;;4.20;;
15708;SDS011;7954;51.914;8.420;2023-07-09T15:14:27;4.80;;;4.28;;
15708;SDS011;7954;51.914;8.420;2023-07-09T15:16:55;4.45;;;4.05;;
15708;SDS011;7954;51.914;8.420;2023-07-09T15:19:26;4.45;;;4.03;;
15708;SDS011;7954;51.914;8.420;2023-07-09T15:21:54;4.32;;;3.92;;
15708;SDS011;7954;51.914;8.420;2023-07-09T15:24:27;4.32;;;3.92;;
15708;SDS011;7954;51.914;8.420;2023-07-09T15:26:57;4.40;;;4.00;;
15708;SDS011;7954;51.914;8.420;2023-07-09T15:29:28;4.65;;;3.90;;